Time;durP1;ratioP1;P1;durP2;ratioP2;P2;SDS_P1;SDS_P2;PMS_P1;PMS_P2;Temp;Humidity;BMP_temperature;BMP_pressure;BME280_temperature;BME280_humidity;BME280_pressure;Samples;Min_cycle;Max_cycle;Signal;HPM_P1;HPM_P2
2023/08/02 00:00:32;;;;;;;23.47;4.50;;;;;;;;;;5054351;28;20290;-31
2023/08/02 00:02:57;;;;;;;22.00;4.57;;;;;;;;;;5053760;28;20749;-32
2023/08/02 00:05:23;;;;;;;22.63;5.43;;;;;;;;;;5053817;28;20021;-32
2023/08/02 00:07:48;;;;;;;21.90;4.83;;;;;;;;;;5054277;28;20239;-32
2023/08/02 00:10:13;;;;;;;24.00;5.23;;;;;;;;;;5054197;28;20048;-32
2023/08/02 00:12:38;;;;;;;22.07;5.30;;;;;;;;;;5054255;28;20032;-31
2023/08/02 00:15:04;;;;;;;20.93;5.03;;;;;;;;;;5053627;28;20025;-32
2023/08/02 00:17:29;;;;;;;24.63;4.43;;;;;;;;;;5053502;28;20255;-31
2023/08/02 00:19:54;;;;;;;24.13;4.30;;;;;;;;;;5053803;28;20021;-32
2023/08/02 00:22:19;;;;;;;17.93;4.30;;;;;;;;;;5053561;28;20314;-31
2023/08/02 00:24:44;;;;;;;23.10;5.23;;;;;;;;;;5053731;28;20104;-32
2023/08/02 00:27:09;;;;;;;18.30;4.10;;;;;;;;;;5053419;28;20371;-32
2023/08/02 00:29:35;;;;;;;20.13;4.63;;;;;;;;;;5053945;28;20244;-32
2023/08/02 00:32:00;;;;;;;16.03;4.10;;;;;;;;;;5053616;28;20255;-32
2023/08/02 00:34:26;;;;;;;21.93;4.07;;;;;;;;;;5053387;28;20354;-32
2023/08/02 00:36:51;;;;;;;15.98;4.07;;;;;;;;;;5053573;28;20295;-30
2023/08/02 00:39:18;;;;;;;21.67;4.30;;;;;;;;;;5053829;28;20060;-31
2023/08/02 00:41:43;;;;;;;22.45;4.30;;;;;;;;;;5053466;28;20413;-31
2023/08/02 00:44:08;;;;;;;17.07;4.00;;;;;;;;;;5053382;28;20100;-31
2023/08/02 00:46:34;;;;;;;21.50;4.35;;;;;;;;;;5058338;28;20312;-31
2023/08/02 00:48:59;;;;;;;21.15;4.45;;;;;;;;;;5060002;28;20452;-32
2023/08/02 00:51:24;;;;;;;16.40;4.20;;;;;;;;;;5059865;28;20376;-31
2023/08/02 00:53:49;;;;;;;14.65;3.92;;;;;;;;;;5059789;28;20263;-32
2023/08/02 00:56:15;;;;;;;17.40;3.90;;;;;;;;;;5059820;28;20024;-31
2023/08/02 00:58:40;;;;;;;16.90;3.97;;;;;;;;;;5060273;28;20013;-32
2023/08/02 01:01:08;;;;;;;20.52;4.43;;;;;;;;;;5059785;28;20104;-32
2023/08/02 01:03:35;;;;;;;18.17;4.45;;;;;;;;;;5060244;28;20028;-31
2023/08/02 01:06:04;;;;;;;19.25;3.83;;;;;;;;;;5060445;28;20009;-32
2023/08/02 01:08:32;;;;;;;23.65;4.60;;;;;;;;;;5060213;28;20021;-32
2023/08/02 01:11:04;;;;;;;18.50;4.15;;;;;;;;;;5059890;28;20023;-32
2023/08/02 01:13:33;;;;;;;13.07;4.22;;;;;;;;;;5059942;28;20419;-32
2023/08/02 01:15:58;;;;;;;17.20;4.20;;;;;;;;;;5059470;28;20353;-32
2023/08/02 01:18:23;;;;;;;24.48;4.63;;;;;;;;;;5059285;28;20025;-32
2023/08/02 01:20:48;;;;;;;17.75;4.28;;;;;;;;;;5059498;28;20063;-32
2023/08/02 01:23:13;;;;;;;22.47;4.57;;;;;;;;;;5059774;28;20451;-32
2023/08/02 01:25:41;;;;;;;16.52;4.43;;;;;;;;;;5059873;28;20274;-32
2023/08/02 01:28:10;;;;;;;16.92;4.68;;;;;;;;;;5041670;28;20452;-31
2023/08/02 01:30:38;;;;;;;17.30;5.00;;;;;;;;;;5059602;28;20092;-31
2023/08/02 01:33:04;;;;;;;18.17;4.38;;;;;;;;;;5059401;28;20017;-32
2023/08/02 01:35:30;;;;;;;16.23;4.25;;;;;;;;;;5059742;28;20451;-32
2023/08/02 01:37:55;;;;;;;24.35;5.15;;;;;;;;;;5059404;28;20023;-32
2023/08/02 01:40:21;;;;;;;20.20;4.22;;;;;;;;;;5059686;28;20024;-32
2023/08/02 01:42:46;;;;;;;10.98;3.97;;;;;;;;;;5059638;28;20391;-32
2023/08/02 01:45:11;;;;;;;22.20;4.90;;;;;;;;;;5059652;28;20432;-32
2023/08/02 01:47:36;;;;;;;21.45;4.57;;;;;;;;;;5059610;28;20024;-32
2023/08/02 01:50:02;;;;;;;19.90;4.68;;;;;;;;;;5059340;28;20116;-32
2023/08/02 01:52:27;;;;;;;27.15;5.60;;;;;;;;;;5059852;28;20059;-32
2023/08/02 01:54:52;;;;;;;14.95;4.93;;;;;;;;;;5059587;28;20455;-31
2023/08/02 01:57:17;;;;;;;13.23;4.90;;;;;;;;;;5057207;28;20425;-32
2023/08/02 01:59:42;;;;;;;14.90;4.83;;;;;;;;;;5056130;28;20028;-32
2023/08/02 02:02:08;;;;;;;14.93;4.95;;;;;;;;;;5056078;28;20342;-32
2023/08/02 02:04:33;;;;;;;16.15;4.80;;;;;;;;;;5056264;28;20032;-32
2023/08/02 02:06:58;;;;;;;14.73;5.00;;;;;;;;;;5056028;28;20356;-32
2023/08/02 02:09:23;;;;;;;16.60;5.53;;;;;;;;;;5056192;28;20251;-32
2023/08/02 02:11:49;;;;;;;17.90;5.27;;;;;;;;;;5056170;28;20009;-31
2023/08/02 02:14:14;;;;;;;16.77;5.65;;;;;;;;;;5056091;28;20259;-30
2023/08/02 02:16:39;;;;;;;18.05;5.43;;;;;;;;;;5056052;28;20021;-32
2023/08/02 02:19:05;;;;;;;17.87;5.70;;;;;;;;;;5056077;28;20024;-30
2023/08/02 02:21:30;;;;;;;17.20;5.67;;;;;;;;;;5056277;28;20259;-30
2023/08/02 02:23:55;;;;;;;15.07;5.03;;;;;;;;;;5055911;28;20765;-33
2023/08/02 02:26:20;;;;;;;14.13;5.73;;;;;;;;;;5056178;28;20263;-31
2023/08/02 02:28:45;;;;;;;16.53;5.83;;;;;;;;;;5055588;28;20610;-31
2023/08/02 02:31:10;;;;;;;15.73;5.27;;;;;;;;;;5055845;28;20060;-31
2023/08/02 02:33:36;;;;;;;16.73;5.70;;;;;;;;;;5055735;28;20460;-31
2023/08/02 02:36:03;;;;;;;18.50;5.90;;;;;;;;;;5055451;28;20244;-31
2023/08/02 02:38:28;;;;;;;11.60;5.05;;;;;;;;;;5055596;28;20730;-31
2023/08/02 02:40:53;;;;;;;18.45;6.20;;;;;;;;;;5055636;28;20033;-31
2023/08/02 02:43:18;;;;;;;12.13;5.80;;;;;;;;;;5055460;28;20459;-31
2023/08/02 02:45:44;;;;;;;18.87;5.40;;;;;;;;;;5055545;28;20251;-31
2023/08/02 02:48:09;;;;;;;20.17;6.00;;;;;;;;;;5055565;28;20317;-31
2023/08/02 02:50:34;;;;;;;19.53;5.90;;;;;;;;;;5055047;28;20060;-31
2023/08/02 02:53:00;;;;;;;16.90;6.03;;;;;;;;;;5055363;28;20262;-32
2023/08/02 02:55:25;;;;;;;11.30;5.28;;;;;;;;;;5055387;28;20028;-31
2023/08/02 02:57:50;;;;;;;15.10;5.60;;;;;;;;;;5055096;28;20088;-32
2023/08/02 03:00:16;;;;;;;15.43;4.88;;;;;;;;;;5055252;28;20309;-30
2023/08/02 03:02:41;;;;;;;15.00;5.40;;;;;;;;;;5055222;28;20024;-32
2023/08/02 03:05:06;;;;;;;13.63;5.13;;;;;;;;;;5055370;28;20029;-31
2023/08/02 03:07:31;;;;;;;10.07;4.85;;;;;;;;;;5054726;28;20264;-31
2023/08/02 03:09:57;;;;;;;14.48;5.03;;;;;;;;;;5053638;28;20361;-30
2023/08/02 03:12:22;;;;;;;13.37;5.00;;;;;;;;;;5055417;28;20021;-31
2023/08/02 03:14:47;;;;;;;17.73;5.70;;;;;;;;;;5054984;28;20609;-31
2023/08/02 03:17:13;;;;;;;20.92;5.20;;;;;;;;;;5054612;28;20024;-31
2023/08/02 03:19:38;;;;;;;14.27;5.30;;;;;;;;;;5055424;28;20040;-31
2023/08/02 03:22:03;;;;;;;17.93;5.40;;;;;;;;;;5054595;28;20070;-31
2023/08/02 03:24:28;;;;;;;19.67;5.22;;;;;;;;;;5054992;28;20103;-31
2023/08/02 03:26:54;;;;;;;14.77;4.60;;;;;;;;;;5054499;28;20013;-30
2023/08/02 03:29:19;;;;;;;14.23;4.90;;;;;;;;;;5054435;28;20274;-31
2023/08/02 03:31:44;;;;;;;15.20;4.83;;;;;;;;;;5054959;28;20294;-30
2023/08/02 03:34:09;;;;;;;16.83;5.30;;;;;;;;;;5054378;28;20748;-31
2023/08/02 03:36:35;;;;;;;16.83;4.70;;;;;;;;;;5054670;28;20040;-30
2023/08/02 03:39:00;;;;;;;12.57;4.80;;;;;;;;;;5054241;28;20095;-30
2023/08/02 03:41:26;;;;;;;12.32;4.65;;;;;;;;;;5054490;28;20082;-31
2023/08/02 03:43:51;;;;;;;15.25;4.88;;;;;;;;;;5054058;28;20013;-31
2023/08/02 03:46:16;;;;;;;17.07;5.03;;;;;;;;;;5054613;28;20025;-32
2023/08/02 03:48:41;;;;;;;15.37;4.70;;;;;;;;;;5054052;28;20562;-36
2023/08/02 03:51:06;;;;;;;16.83;4.80;;;;;;;;;;5053924;28;20291;-35
2023/08/02 03:53:32;;;;;;;13.30;4.72;;;;;;;;;;5054320;28;20614;-31
2023/08/02 03:55:57;;;;;;;17.42;4.53;;;;;;;;;;5054195;28;20024;-32
2023/08/02 03:58:22;;;;;;;14.32;4.60;;;;;;;;;;5053999;28;20486;-31
2023/08/02 04:00:47;;;;;;;16.33;4.23;;;;;;;;;;5053873;28;20494;-30
2023/08/02 04:03:13;;;;;;;15.63;4.72;;;;;;;;;;5054069;28;20287;-31
2023/08/02 04:05:38;;;;;;;12.60;4.72;;;;;;;;;;5053936;28;20146;-31
2023/08/02 04:08:03;;;;;;;11.68;4.53;;;;;;;;;;5053719;28;20017;-30
2023/08/02 04:10:28;;;;;;;14.93;4.90;;;;;;;;;;5054292;28;20115;-32
2023/08/02 04:12:54;;;;;;;15.13;4.37;;;;;;;;;;5053936;28;20421;-31
2023/08/02 04:15:19;;;;;;;12.48;4.85;;;;;;;;;;5053916;28;20252;-32
2023/08/02 04:17:44;;;;;;;13.47;4.47;;;;;;;;;;5053692;28;20024;-32
2023/08/02 04:20:10;;;;;;;12.93;4.50;;;;;;;;;;5053772;28;20283;-32
2023/08/02 04:22:35;;;;;;;11.75;3.95;;;;;;;;;;5053470;28;20619;-31
2023/08/02 04:25:01;;;;;;;14.63;4.55;;;;;;;;;;5053391;28;20024;-30
2023/08/02 04:27:26;;;;;;;10.80;4.22;;;;;;;;;;5054000;28;20017;-31
2023/08/02 04:29:51;;;;;;;9.57;4.60;;;;;;;;;;5053780;28;20013;-33
2023/08/02 04:32:16;;;;;;;14.50;4.20;;;;;;;;;;5053921;28;20275;-31
2023/08/02 04:34:41;;;;;;;8.52;3.58;;;;;;;;;;5053454;28;20732;-32
2023/08/02 04:37:07;;;;;;;14.45;4.75;;;;;;;;;;5053723;28;20078;-32
2023/08/02 04:39:32;;;;;;;11.50;3.93;;;;;;;;;;5053717;28;20131;-32
2023/08/02 04:42:00;;;;;;;10.40;4.13;;;;;;;;;;5053656;28;20096;-31
2023/08/02 04:44:26;;;;;;;11.82;3.83;;;;;;;;;;5052990;28;20082;-32
2023/08/02 04:46:51;;;;;;;14.05;4.30;;;;;;;;;;5053427;28;20021;-32
2023/08/02 04:49:16;;;;;;;15.03;4.27;;;;;;;;;;5052929;28;20037;-32
2023/08/02 04:51:41;;;;;;;12.30;3.93;;;;;;;;;;5053560;28;20247;-32
2023/08/02 04:54:07;;;;;;;9.75;3.90;;;;;;;;;;5053366;28;20598;-32
2023/08/02 04:56:32;;;;;;;12.65;4.22;;;;;;;;;;5053335;28;20043;-32
2023/08/02 04:58:57;;;;;;;18.00;3.80;;;;;;;;;;5053082;28;20040;-32
2023/08/02 05:01:22;;;;;;;10.88;4.07;;;;;;;;;;5053020;28;20622;-31
2023/08/02 05:03:47;;;;;;;12.65;4.50;;;;;;;;;;5053185;28;20368;-32
2023/08/02 05:06:13;;;;;;;9.87;3.80;;;;;;;;;;5052994;28;20467;-31
2023/08/02 05:08:38;;;;;;;13.18;3.78;;;;;;;;;;5053151;28;20248;-32
2023/08/02 05:11:04;;;;;;;10.15;3.53;;;;;;;;;;5052847;28;20029;-32
2023/08/02 05:13:29;;;;;;;8.38;3.70;;;;;;;;;;5052835;28;20024;-31
2023/08/02 05:15:55;;;;;;;13.50;4.30;;;;;;;;;;5052882;28;20016;-31
2023/08/02 05:18:20;;;;;;;14.05;3.78;;;;;;;;;;5035677;28;20270;-32
2023/08/02 05:20:46;;;;;;;9.80;3.65;;;;;;;;;;5052872;28;20383;-31
2023/08/02 05:23:11;;;;;;;10.13;3.78;;;;;;;;;;5052930;28;20025;-32
2023/08/02 05:25:36;;;;;;;11.80;3.78;;;;;;;;;;5052714;28;20448;-32
2023/08/02 05:28:02;;;;;;;12.15;4.20;;;;;;;;;;5052783;28;20030;-31
2023/08/02 05:30:28;;;;;;;12.98;4.47;;;;;;;;;;5052680;28;20070;-32
2023/08/02 05:32:54;;;;;;;9.98;3.70;;;;;;;;;;5054230;28;20045;-32
2023/08/02 05:35:19;;;;;;;10.55;4.03;;;;;;;;;;5056725;28;20027;-32
2023/08/02 05:37:44;;;;;;;12.37;4.00;;;;;;;;;;5056985;28;20017;-30
2023/08/02 05:40:10;;;;;;;11.90;4.17;;;;;;;;;;5056386;28;20251;-30
2023/08/02 05:42:35;;;;;;;11.80;3.90;;;;;;;;;;5056697;28;20329;-32
2023/08/02 05:45:00;;;;;;;9.30;4.30;;;;;;;;;;5056157;28;20021;-32
2023/08/02 05:47:25;;;;;;;12.07;4.32;;;;;;;;;;5056732;28;20278;-32
2023/08/02 05:49:51;;;;;;;10.73;3.90;;;;;;;;;;5056297;28;20091;-32
2023/08/02 05:52:16;;;;;;;12.23;4.10;;;;;;;;;;5038263;28;20025;-31
2023/08/02 05:54:41;;;;;;;8.73;3.90;;;;;;;;;;5056305;28;20021;-32
2023/08/02 05:57:09;;;;;;;9.83;3.60;;;;;;;;;;5056148;28;20255;-32
2023/08/02 05:59:37;;;;;;;10.98;4.03;;;;;;;;;;5056582;28;20252;-32
2023/08/02 06:02:02;;;;;;;9.02;4.03;;;;;;;;;;5055922;28;20013;-32
2023/08/02 06:04:27;;;;;;;8.93;4.10;;;;;;;;;;5056094;28;20075;-31
2023/08/02 06:06:53;;;;;;;12.10;4.30;;;;;;;;;;5056203;28;20467;-31
2023/08/02 06:09:18;;;;;;;12.25;4.20;;;;;;;;;;5055836;28;20243;-31
2023/08/02 06:11:43;;;;;;;9.35;3.90;;;;;;;;;;5055641;28;20024;-31
2023/08/02 06:14:08;;;;;;;9.63;4.23;;;;;;;;;;5056071;28;20028;-32
2023/08/02 06:16:34;;;;;;;9.77;4.35;;;;;;;;;;5021180;28;20626;-31
2023/08/02 06:18:59;;;;;;;13.90;4.30;;;;;;;;;;5055671;28;20025;-32
2023/08/02 06:21:24;;;;;;;9.23;4.10;;;;;;;;;;5055679;28;20271;-31
2023/08/02 06:23:50;;;;;;;10.77;4.00;;;;;;;;;;5056258;28;20303;-31
2023/08/02 06:26:15;;;;;;;8.68;3.67;;;;;;;;;;5055826;28;20272;-32
2023/08/02 06:28:41;;;;;;;9.98;3.85;;;;;;;;;;5055514;28;20021;-31
2023/08/02 06:31:06;;;;;;;8.10;4.10;;;;;;;;;;5055236;28;20036;-31
2023/08/02 06:33:31;;;;;;;7.30;4.07;;;;;;;;;;5055526;28;20013;-31
2023/08/02 06:35:56;;;;;;;7.47;3.45;;;;;;;;;;5055186;28;20278;-31
2023/08/02 06:38:21;;;;;;;7.60;3.80;;;;;;;;;;5055899;28;20013;-31
2023/08/02 06:40:47;;;;;;;6.43;3.53;;;;;;;;;;5054778;28;20271;-31
2023/08/02 06:43:12;;;;;;;8.23;3.80;;;;;;;;;;5054522;28;20264;-31
2023/08/02 06:45:37;;;;;;;7.07;3.40;;;;;;;;;;5054584;28;20028;-32
2023/08/02 06:48:05;;;;;;;11.48;3.28;;;;;;;;;;5054845;28;20247;-31
2023/08/02 06:50:35;;;;;;;9.15;3.33;;;;;;;;;;5054399;28;20090;-31
2023/08/02 06:53:00;;;;;;;7.10;3.08;;;;;;;;;;5054497;28;20070;-31
2023/08/02 06:55:25;;;;;;;6.40;3.20;;;;;;;;;;5054876;28;20028;-31
2023/08/02 06:57:51;;;;;;;5.10;3.10;;;;;;;;;;5055185;28;20639;-33
2023/08/02 07:00:16;;;;;;;6.35;3.05;;;;;;;;;;5055219;28;20103;-32
2023/08/02 07:02:42;;;;;;;6.13;2.85;;;;;;;;;;5054888;28;20070;-32
2023/08/02 07:05:07;;;;;;;4.50;2.80;;;;;;;;;;5037744;28;20024;-31
2023/08/02 07:07:33;;;;;;;6.15;2.95;;;;;;;;;;5036945;28;20071;-34
2023/08/02 07:09:58;;;;;;;5.00;2.72;;;;;;;;;;5037415;28;20013;-32
2023/08/02 07:12:24;;;;;;;7.00;2.87;;;;;;;;;;5054926;28;20017;-32
2023/08/02 07:14:50;;;;;;;6.00;2.75;;;;;;;;;;5037027;28;20279;-32
2023/08/02 07:17:15;;;;;;;4.20;2.72;;;;;;;;;;5054734;28;20502;-32
2023/08/02 07:19:40;;;;;;;8.03;3.03;;;;;;;;;;5055297;28;20081;-32
2023/08/02 07:22:06;;;;;;;4.75;2.40;;;;;;;;;;5054710;28;20307;-31
2023/08/02 07:24:31;;;;;;;4.95;2.20;;;;;;;;;;5054756;28;20030;-32
2023/08/02 07:26:56;;;;;;;4.40;2.40;;;;;;;;;;5054073;28;20018;-32
2023/08/02 07:29:21;;;;;;;4.27;2.20;;;;;;;;;;5053360;28;20583;-32
2023/08/02 07:31:47;;;;;;;3.77;2.37;;;;;;;;;;5053880;28;20263;-31
2023/08/02 07:34:12;;;;;;;4.32;2.20;;;;;;;;;;5054178;28;20259;-32
2023/08/02 07:36:37;;;;;;;5.30;2.17;;;;;;;;;;5053743;28;20426;-32
2023/08/02 07:39:02;;;;;;;3.10;2.10;;;;;;;;;;5053749;28;20266;-31
2023/08/02 07:41:28;;;;;;;2.80;1.98;;;;;;;;;;5054076;28;20353;-32
2023/08/02 07:43:53;;;;;;;6.35;2.08;;;;;;;;;;5036663;28;20372;-32
2023/08/02 07:46:19;;;;;;;5.03;2.00;;;;;;;;;;5054268;28;20013;-31
2023/08/02 07:48:44;;;;;;;3.55;2.00;;;;;;;;;;5053909;28;20013;-31
2023/08/02 07:51:09;;;;;;;4.82;1.65;;;;;;;;;;5053816;28;20070;-31
2023/08/02 07:53:35;;;;;;;5.20;1.80;;;;;;;;;;5054461;28;20143;-31
2023/08/02 07:56:01;;;;;;;1.83;1.48;;;;;;;;;;5053408;28;20264;-31
2023/08/02 07:58:26;;;;;;;2.50;1.52;;;;;;;;;;5053982;28;20163;-31
2023/08/02 08:00:51;;;;;;;2.50;1.60;;;;;;;;;;5053902;28;20100;-32
2023/08/02 08:03:16;;;;;;;2.57;1.50;;;;;;;;;;5053991;28;20074;-31
2023/08/02 08:05:42;;;;;;;1.80;1.40;;;;;;;;;;5054251;28;20385;-32
2023/08/02 08:08:07;;;;;;;1.52;1.20;;;;;;;;;;5054079;28;20339;-31
2023/08/02 08:10:32;;;;;;;1.90;1.33;;;;;;;;;;5053709;28;20401;-31
2023/08/02 08:12:57;;;;;;;4.47;1.40;;;;;;;;;;5053517;28;20262;-30
2023/08/02 08:15:23;;;;;;;2.22;1.30;;;;;;;;;;5052101;28;20383;-31
2023/08/02 08:17:48;;;;;;;3.15;1.08;;;;;;;;;;5052327;28;20139;-31
2023/08/02 08:20:13;;;;;;;2.42;1.50;;;;;;;;;;5052986;28;20032;-31
2023/08/02 08:22:38;;;;;;;1.38;0.95;;;;;;;;;;5053563;28;20025;-31
2023/08/02 08:25:04;;;;;;;1.10;0.93;;;;;;;;;;5053997;28;20427;-31
2023/08/02 08:27:29;;;;;;;1.88;1.10;;;;;;;;;;5053997;28;20028;-32
2023/08/02 08:29:54;;;;;;;1.45;0.90;;;;;;;;;;5053642;28;20021;-32
2023/08/02 08:32:22;;;;;;;1.87;0.90;;;;;;;;;;5053634;28;20021;-31
2023/08/02 08:34:47;;;;;;;0.90;0.60;;;;;;;;;;5053141;28;20272;-32
2023/08/02 08:37:12;;;;;;;1.60;0.93;;;;;;;;;;5053535;28;20020;-31
2023/08/02 08:39:38;;;;;;;1.00;0.60;;;;;;;;;;5053688;28;20025;-31
2023/08/02 08:42:07;;;;;;;1.00;0.77;;;;;;;;;;5053553;28;20267;-31
2023/08/02 08:44:35;;;;;;;1.50;0.90;;;;;;;;;;5053279;28;20025;-30
2023/08/02 08:47:02;;;;;;;1.42;0.80;;;;;;;;;;5053608;28;20047;-31
2023/08/02 08:49:27;;;;;;;0.63;0.50;;;;;;;;;;5053167;28;20071;-31
2023/08/02 08:51:55;;;;;;;0.77;0.60;;;;;;;;;;5053497;28;20017;-31
2023/08/02 08:54:23;;;;;;;0.63;0.40;;;;;;;;;;5053601;28;20017;-31
2023/08/02 08:56:48;;;;;;;1.67;0.50;;;;;;;;;;5053704;28;20052;-31
2023/08/02 08:59:14;;;;;;;1.17;0.68;;;;;;;;;;5053389;28;20500;-31
2023/08/02 09:01:40;;;;;;;1.58;0.70;;;;;;;;;;5053344;28;20044;-31
2023/08/02 09:04:05;;;;;;;1.30;0.77;;;;;;;;;;5053054;28;20047;-31
2023/08/02 09:06:31;;;;;;;0.60;0.55;;;;;;;;;;5054649;28;20025;-31
2023/08/02 09:08:56;;;;;;;1.70;0.70;;;;;;;;;;5055831;28;20075;-31
2023/08/02 09:11:21;;;;;;;0.70;0.47;;;;;;;;;;5056439;28;20096;-36
2023/08/02 09:13:46;;;;;;;1.67;0.60;;;;;;;;;;5056749;28;20287;-31
2023/08/02 09:16:13;;;;;;;1.58;0.90;;;;;;;;;;5056551;28;20413;-31
2023/08/02 09:18:42;;;;;;;0.88;0.68;;;;;;;;;;5055269;28;20033;-32
2023/08/02 09:21:08;;;;;;;0.55;0.55;;;;;;;;;;5056630;28;20340;-32
2023/08/02 09:23:34;;;;;;;0.98;0.82;;;;;;;;;;5056951;28;20036;-32
2023/08/02 09:26:09;;;;;;;1.45;0.90;;;;;;;;;;5056077;28;20468;-32
2023/08/02 09:28:34;;;;;;;1.27;1.00;;;;;;;;;;5056886;28;20464;-31
2023/08/02 09:31:12;;;;;;;1.33;1.10;;;;;;;;;;5057007;28;20051;-31
2023/08/02 09:33:48;;;;;;;2.60;1.15;;;;;;;;;;5056674;28;20283;-31
2023/08/02 09:36:20;;;;;;;2.20;1.40;;;;;;;;;;5056531;28;20099;-31
2023/08/02 09:38:53;;;;;;;1.70;1.30;;;;;;;;;;5039387;28;20027;-31
2023/08/02 09:41:24;;;;;;;4.55;1.65;;;;;;;;;;5056910;28;20021;-31
2023/08/02 09:43:51;;;;;;;3.10;1.60;;;;;;;;;;5056037;28;20032;-31
2023/08/02 09:46:43;;;;;;;1.95;1.70;;;;;;;;;;5056462;28;20501;-30
2023/08/02 09:49:18;;;;;;;1.98;1.75;;;;;;;;;;5052290;28;20033;-32
2023/08/02 09:51:44;;;;;;;2.15;1.80;;;;;;;;;;5056251;28;20009;-31
2023/08/02 09:54:10;;;;;;;1.83;1.63;;;;;;;;;;5056102;28;20028;-31
2023/08/02 09:56:43;;;;;;;2.70;1.70;;;;;;;;;;5056296;28;20047;-32
2023/08/02 09:59:08;;;;;;;;;;;;;;;;;;5038559;28;20056;-32
2023/08/02 10:01:34;;;;;;;3.00;1.83;;;;;;;;;;5054580;28;19936;-31
2023/08/02 10:04:05;;;;;;;2.38;1.42;;;;;;;;;;5021500;28;20029;-32
2023/08/02 10:06:37;;;;;;;2.78;1.50;;;;;;;;;;5056210;28;20418;-32
2023/08/02 10:09:04;;;;;;;3.10;1.50;;;;;;;;;;5055882;28;20357;-32
2023/08/02 10:11:34;;;;;;;2.97;1.60;;;;;;;;;;5056095;28;20013;-32
2023/08/02 10:14:00;;;;;;;2.10;1.30;;;;;;;;;;5054661;28;20066;-32
2023/08/02 10:16:25;;;;;;;3.45;1.50;;;;;;;;;;5053653;28;20013;-32
2023/08/02 10:18:52;;;;;;;2.17;1.38;;;;;;;;;;5053182;28;20023;-32
2023/08/02 10:21:18;;;;;;;2.05;1.25;;;;;;;;;;5053866;28;20100;-32
2023/08/02 10:23:43;;;;;;;2.47;1.20;;;;;;;;;;5053491;28;20551;-32
2023/08/02 10:26:09;;;;;;;2.05;1.30;;;;;;;;;;5053621;28;20021;-32
2023/08/02 10:28:34;;;;;;;2.25;1.45;;;;;;;;;;5054252;28;20052;-31
2023/08/02 10:31:01;;;;;;;2.58;1.60;;;;;;;;;;5055490;28;20013;-32
2023/08/02 10:33:27;;;;;;;4.57;1.50;;;;;;;;;;5055820;28;20380;-32
2023/08/02 10:35:56;;;;;;;2.60;1.30;;;;;;;;;;5055747;28;20017;-32
2023/08/02 10:38:39;;;;;;;2.33;1.40;;;;;;;;;;5055325;28;20080;-31
2023/08/02 10:41:09;;;;;;;2.33;1.38;;;;;;;;;;5055458;28;20029;-32
2023/08/02 10:43:54;;;;;;;4.88;1.40;;;;;;;;;;5055137;28;20021;-32
2023/08/02 10:46:22;;;;;;;4.57;1.48;;;;;;;;;;5054837;28;20104;-32
2023/08/02 10:48:47;;;;;;;3.58;1.20;;;;;;;;;;5055498;28;20027;-32
2023/08/02 10:51:30;;;;;;;5.57;1.40;;;;;;;;;;5054892;28;20033;-32
2023/08/02 10:54:14;;;;;;;4.60;1.55;;;;;;;;;;5055061;28;20044;-32
2023/08/02 10:56:51;;;;;;;4.65;1.45;;;;;;;;;;5055276;28;20494;-31
2023/08/02 10:59:22;;;;;;;3.80;1.35;;;;;;;;;;5054419;28;20460;-31
2023/08/02 11:01:53;;;;;;;4.78;1.20;;;;;;;;;;5054664;28;20021;-31
2023/08/02 11:04:19;;;;;;;3.85;1.33;;;;;;;;;;5055080;28;20082;-32
2023/08/02 11:06:44;;;;;;;4.20;1.30;;;;;;;;;;5054883;28;20478;-32
2023/08/02 11:09:09;;;;;;;7.35;1.90;;;;;;;;;;5054788;28;20040;-31
2023/08/02 11:11:36;;;;;;;5.23;1.80;;;;;;;;;;5036274;28;20017;-32
2023/08/02 11:14:01;;;;;;;5.85;1.60;;;;;;;;;;5054073;28;20320;-31
2023/08/02 11:16:26;;;;;;;5.20;1.92;;;;;;;;;;5054495;28;20032;-31
2023/08/02 11:18:52;;;;;;;5.07;1.67;;;;;;;;;;5053634;28;20031;-31
2023/08/02 11:21:17;;;;;;;9.52;1.70;;;;;;;;;;5053799;28;20023;-31
2023/08/02 11:23:43;;;;;;;7.73;2.00;;;;;;;;;;5054419;28;20029;-31
2023/08/02 11:26:09;;;;;;;6.63;1.60;;;;;;;;;;5054257;28;20385;-31
2023/08/02 11:28:48;;;;;;;8.20;2.28;;;;;;;;;;5054727;28;20031;-31
2023/08/02 11:31:13;;;;;;;8.43;1.70;;;;;;;;;;5053300;28;20191;-31
2023/08/02 11:33:40;;;;;;;9.95;2.15;;;;;;;;;;5054562;28;20059;-32
2023/08/02 11:36:05;;;;;;;6.70;2.00;;;;;;;;;;5054507;28;20021;-32
2023/08/02 11:38:31;;;;;;;8.25;2.03;;;;;;;;;;5054560;28;20479;-32
2023/08/02 11:40:57;;;;;;;12.23;2.50;;;;;;;;;;5054353;28;20383;-32
2023/08/02 11:43:34;;;;;;;13.57;2.50;;;;;;;;;;5053946;28;20028;-32
2023/08/02 11:48:54;;;;;;;8.13;2.00;;;;;;;;;;5032767;28;20507;-76
2023/08/02 11:51:20;;;;;;;9.02;2.28;;;;;;;;;;5036175;28;20407;-74
2023/08/02 11:53:49;;;;;;;6.00;1.60;;;;;;;;;;5021063;28;20021;-75
2023/08/02 11:56:14;;;;;;;6.47;1.45;;;;;;;;;;5038207;28;20028;-76
2023/08/02 11:58:40;;;;;;;4.07;1.30;;;;;;;;;;5017916;28;20469;-75
2023/08/02 12:01:05;;;;;;;5.93;1.10;;;;;;;;;;5038617;28;20437;-76
2023/08/02 12:03:30;;;;;;;3.90;0.98;;;;;;;;;;5020213;28;20033;-75
2023/08/02 12:06:00;;;;;;;2.53;0.63;;;;;;;;;;5019776;28;20013;-76
2023/08/02 12:08:25;;;;;;;4.18;1.13;;;;;;;;;;5042058;28;20302;-76
2023/08/02 12:10:51;;;;;;;5.88;1.35;;;;;;;;;;5036364;28;20022;-76
2023/08/02 12:13:16;;;;;;;4.97;1.10;;;;;;;;;;5022442;28;20037;-75
2023/08/02 12:16:01;;;;;;;5.57;1.35;;;;;;;;;;5036505;28;20108;-75
2023/08/02 12:18:26;;;;;;;4.63;1.25;;;;;;;;;;5016710;28;20496;-75
2023/08/02 12:20:52;;;;;;;6.03;1.30;;;;;;;;;;5041009;28;20131;-75
2023/08/02 12:23:30;;;;;;;8.90;1.35;;;;;;;;;;5046562;28;20013;-75
2023/08/02 12:25:55;;;;;;;4.15;1.23;;;;;;;;;;5045589;28;20026;-75
2023/08/02 12:28:20;;;;;;;10.53;1.60;;;;;;;;;;5027823;28;20034;-75
2023/08/02 12:31:04;;;;;;;5.37;1.23;;;;;;;;;;5028202;28;20037;-75
2023/08/02 12:33:33;;;;;;;9.95;1.55;;;;;;;;;;5026313;28;20279;-75
2023/08/02 12:35:59;;;;;;;8.00;1.48;;;;;;;;;;5044941;28;20417;-75
2023/08/02 12:38:29;;;;;;;6.72;1.30;;;;;;;;;;5058162;28;20028;-75
2023/08/02 12:40:55;;;;;;;4.35;1.05;;;;;;;;;;5039642;28;19998;-75
2023/08/02 12:43:20;;;;;;;6.68;1.30;;;;;;;;;;5038398;28;20431;-75
2023/08/02 12:45:45;;;;;;;7.20;1.53;;;;;;;;;;5033434;28;20045;-75
2023/08/02 12:48:10;;;;;;;5.47;1.20;;;;;;;;;;5032032;28;20322;-74
2023/08/02 12:50:36;;;;;;;6.03;1.13;;;;;;;;;;5032905;28;20104;-75
2023/08/02 12:53:01;;;;;;;5.60;1.30;;;;;;;;;;5032619;28;20013;-75
2023/08/02 12:55:26;;;;;;;6.80;1.23;;;;;;;;;;5014834;28;20268;-75
2023/08/02 12:57:52;;;;;;;7.72;1.50;;;;;;;;;;5032366;28;20287;-75
2023/08/02 13:00:17;;;;;;;7.85;1.58;;;;;;;;;;5033264;28;20495;-75
2023/08/02 13:02:43;;;;;;;8.98;1.42;;;;;;;;;;5032947;28;20469;-75
2023/08/02 13:05:08;;;;;;;5.47;1.35;;;;;;;;;;5032955;28;20025;-75
2023/08/02 13:07:34;;;;;;;7.13;1.30;;;;;;;;;;5035699;28;20358;-75
2023/08/02 13:09:59;;;;;;;14.57;1.60;;;;;;;;;;5015463;28;20021;-75
2023/08/02 13:12:24;;;;;;;6.40;1.20;;;;;;;;;;5033021;28;20073;-75
2023/08/02 13:14:49;;;;;;;3.93;1.00;;;;;;;;;;5032879;28;20267;-75
2023/08/02 13:17:14;;;;;;;5.63;1.20;;;;;;;;;;5033294;28;20272;-74
2023/08/02 13:19:40;;;;;;;3.92;1.20;;;;;;;;;;5015619;28;20271;-75
2023/08/02 13:22:05;;;;;;;9.15;1.58;;;;;;;;;;5033171;28;20029;-77
2023/08/02 13:24:30;;;;;;;8.48;1.33;;;;;;;;;;5015084;28;20024;-76
2023/08/02 13:26:55;;;;;;;10.00;1.60;;;;;;;;;;5032959;28;20022;-74
2023/08/02 13:29:21;;;;;;;7.50;1.27;;;;;;;;;;5033775;28;20302;-74
2023/08/02 13:31:46;;;;;;;9.70;1.70;;;;;;;;;;5036521;28;20404;-75
2023/08/02 13:34:11;;;;;;;11.68;1.70;;;;;;;;;;5015567;28;20303;-75
2023/08/02 13:36:36;;;;;;;8.43;1.45;;;;;;;;;;5033075;28;20472;-75
2023/08/02 13:39:02;;;;;;;6.63;1.50;;;;;;;;;;5032844;28;20103;-75
2023/08/02 13:41:27;;;;;;;10.55;1.55;;;;;;;;;;5032730;28;20319;-75
2023/08/02 13:43:52;;;;;;;13.57;1.90;;;;;;;;;;5060566;22;20036;-26
2023/08/02 13:46:18;;;;;;;12.93;2.58;;;;;;;;;;5013726;28;20443;-28
2023/08/02 13:48:43;;;;;;;11.13;1.87;;;;;;;;;;5031999;28;20014;-27
2023/08/02 13:51:08;;;;;;;7.30;1.60;;;;;;;;;;5032097;28;20249;-26
2023/08/02 13:53:33;;;;;;;10.70;1.70;;;;;;;;;;5033016;28;20056;-26
2023/08/02 13:55:59;;;;;;;10.43;1.80;;;;;;;;;;5035738;28;20260;-27
2023/08/02 13:58:24;;;;;;;10.95;1.80;;;;;;;;;;5035991;28;20264;-27
2023/08/02 14:00:50;;;;;;;11.33;2.33;;;;;;;;;;5035898;28;20045;-27
2023/08/02 14:03:15;;;;;;;7.63;1.70;;;;;;;;;;5018388;28;20264;-27
2023/08/02 14:05:40;;;;;;;6.97;1.47;;;;;;;;;;5036395;28;20021;-27
2023/08/02 14:08:06;;;;;;;9.97;1.53;;;;;;;;;;5036369;28;20264;-35
2023/08/02 14:10:31;;;;;;;7.32;1.30;;;;;;;;;;5036231;28;20259;-27
2023/08/02 14:12:58;;;;;;;7.90;1.63;;;;;;;;;;5035990;28;20139;-28
2023/08/02 14:15:23;;;;;;;5.93;1.08;;;;;;;;;;5036118;28;20486;-28
2023/08/02 14:17:48;;;;;;;6.75;1.35;;;;;;;;;;5035827;28;20018;-27
2023/08/02 14:20:14;;;;;;;8.25;1.23;;;;;;;;;;5035777;28;20027;-27
2023/08/02 14:22:39;;;;;;;8.07;1.20;;;;;;;;;;5035743;28;20025;-27
2023/08/02 14:25:04;;;;;;;4.77;1.33;;;;;;;;;;5035886;28;20303;-27
2023/08/02 14:27:29;;;;;;;5.78;1.30;;;;;;;;;;5035661;28;20271;-27
2023/08/02 14:29:55;;;;;;;5.43;1.60;;;;;;;;;;5035593;28;20105;-27
2023/08/02 14:32:20;;;;;;;4.77;1.40;;;;;;;;;;5036059;28;20014;-27
2023/08/02 14:34:45;;;;;;;8.82;1.70;;;;;;;;;;5035546;28;20248;-27